TimeCDT,TemperatureF,Dew PointF,Humidity,Sea Level PressureIn,VisibilityMPH,Wind Direction,Wind SpeedMPH,Gust SpeedMPH,PrecipitationIn,Events,Conditions,WindDirDegrees,DateUTC
12:03 AM,71.6,68.0,88,30.08,10.0,NE,2.3,-,N/A,,Clear,40,2013-08-23 05:03:00
12:58 AM,71.4,67.6,88,30.06,10.0,East,4.6,-,N/A,,Clear,90,2013-08-23 05:58:00
1:58 AM,68.4,68.0,99,30.06,10.0,Calm,Calm,-,N/A,,Scattered Clouds,0,2013-08-23 06:58:00
2:58 AM,69.4,68.4,96,30.06,10.0,Calm,Calm,-,N/A,,Partly Cloudy,0,2013-08-23 07:58:00
3:58 AM,69.3,68.7,98,30.06,10.0,Calm,Calm,-,N/A,,Clear,0,2013-08-23 08:58:00
4:58 AM,68.7,68.4,99,30.05,10.0,ESE,1.2,-,N/A,,Partly Cloudy,110,2013-08-23 09:58:00
5:58 AM,68.5,68.4,99,30.06,10.0,Calm,Calm,-,N/A,,Scattered Clouds,0,2013-08-23 10:58:00
6:58 AM,68.2,68.0,99,30.05,10.0,Calm,Calm,-,N/A,,Scattered Clouds,0,2013-08-23 11:58:00
7:58 AM,71.1,70.2,97,30.07,10.0,SE,3.5,-,N/A,,Clear,140,2013-08-23 12:58:00
8:58 AM,73.9,70.5,89,30.08,10.0,SE,4.6,-,N/A,,Clear,130,2013-08-23 13:58:00
9:58 AM,77.2,71.1,81,30.07,10.0,SSE,6.9,-,N/A,,Clear,150,2013-08-23 14:58:00
10:58 AM,82.8,71.2,68,30.07,10.0,SSE,8.1,-,N/A,,Clear,160,2013-08-23 15:58:00
11:58 AM,86.2,71.8,62,30.05,10.0,SE,8.1,-,N/A,,Clear,140,2013-08-23 16:58:00
12:58 PM,88.3,69.6,54,30.04,10.0,SE,10.4,-,N/A,,Clear,140,2013-08-23 17:58:00
1:58 PM,90.3,68.5,49,30.02,10.0,SSE,12.7,-,N/A,,Clear,150,2013-08-23 18:58:00
2:58 PM,90.9,68.2,47,30.01,10.0,South,13.8,-,N/A,,Clear,180,2013-08-23 19:58:00
3:58 PM,90.0,66.9,46,30.01,10.0,SSE,16.1,-,N/A,,Clear,160,2013-08-23 20:58:00
4:58 PM,89.6,68.4,49,30.00,10.0,SSE,16.1,-,N/A,,Clear,150,2013-08-23 21:58:00
5:58 PM,88.3,67.3,50,30.00,10.0,SSE,15.0,-,N/A,,Clear,160,2013-08-23 22:58:00
6:58 PM,85.3,69.8,60,29.99,10.0,SE,8.1,-,N/A,,Clear,140,2013-08-23 23:58:00
7:58 PM,81.7,69.8,67,29.98,10.0,SE,6.9,-,N/A,,Clear,130,2013-08-24 00:58:00
8:58 PM,78.6,70.0,75,29.98,10.0,SE,6.9,-,N/A,,Clear,140,2013-08-24 01:58:00
9:58 PM,78.3,70.7,77,29.99,10.0,SSE,5.8,-,N/A,,Clear,150,2013-08-24 02:58:00
10:58 PM,75.4,70.0,83,30.00,10.0,SSE,5.8,-,N/A,,Clear,150,2013-08-24 03:58:00
11:58 PM,76.6,69.1,77,30.01,10.0,SSE,4.6,-,N/A,,Clear,150,2013-08-24 04:58:00